Time;durP1;ratioP1;P1;durP2;ratioP2;P2;SDS_P1;SDS_P2;PMS_P1;PMS_P2;Temp;Humidity;BMP_temperature;BMP_pressure;BME280_temperature;BME280_humidity;BME280_pressure;Samples;Min_cycle;Max_cycle;Signal;HPM_P1;HPM_P2
2022/11/05 00:10:54;;;;;;;3.10;2.00;;;5.90;99.90;;;;;;5035325;28;20414;-86
2022/11/05 00:19:05;;;;;;;3.90;2.27;;;6.00;99.90;;;;;;5035024;28;20167;-86
2022/11/05 00:26:59;;;;;;;4.50;2.97;;;6.00;99.90;;;;;;5035043;28;20036;-86
2022/11/05 00:29:24;;;;;;;5.67;3.37;;;6.00;99.90;;;;;;5034890;28;20021;-86
2022/11/05 00:31:50;;;;;;;3.90;2.30;;;5.90;99.90;;;;;;5034680;28;20037;-86
2022/11/05 00:34:15;;;;;;;4.17;2.53;;;6.00;99.90;;;;;;5035082;28;20059;-86
2022/11/05 00:36:41;;;;;;;4.53;2.37;;;6.00;99.90;;;;;;5034626;28;20049;-86
2022/11/05 00:39:06;;;;;;;4.07;2.33;;;6.00;99.90;;;;;;5034537;28;20037;-87
2022/11/05 00:41:32;;;;;;;4.63;2.67;;;6.00;99.90;;;;;;5034396;28;20124;-86
2022/11/05 00:46:42;;;;;;;5.33;2.40;;;6.00;99.90;;;;;;5034642;28;20160;-86
2022/11/05 00:52:54;;;;;;;4.10;2.30;;;6.00;99.90;;;;;;5038218;28;20040;-86
2022/11/05 00:54:37;;;;;;;5.40;2.60;;;6.00;99.90;;;;;;5038511;28;20033;-87
2022/11/05 00:57:02;;;;;;;4.67;2.87;;;6.00;99.90;;;;;;5035495;28;20037;-86
2022/11/05 00:59:28;;;;;;;6.17;2.97;;;6.00;99.90;;;;;;5034346;28;20112;-86
2022/11/05 01:01:53;;;;;;;5.27;3.37;;;6.00;99.90;;;;;;5034554;28;20025;-86
2022/11/05 01:04:19;;;;;;;3.93;2.93;;;6.00;99.90;;;;;;5034495;28;20029;-86
2022/11/05 01:06:44;;;;;;;10.40;4.10;;;6.00;99.90;;;;;;5034050;28;20138;-84
2022/11/05 01:09:10;;;;;;;4.10;2.63;;;6.00;99.90;;;;;;5034133;28;20064;-86
2022/11/05 01:11:36;;;;;;;5.50;3.13;;;6.00;99.90;;;;;;5034111;28;20125;-86
2022/11/05 01:14:05;;;;;;;4.90;2.53;;;6.00;99.90;;;;;;5034209;28;20033;-86
2022/11/05 01:16:31;;;;;;;3.60;2.50;;;6.00;99.90;;;;;;5033813;28;20046;-86
2022/11/05 01:18:56;;;;;;;4.50;2.93;;;6.00;99.90;;;;;;5033822;28;20064;-86
2022/11/05 01:21:22;;;;;;;5.67;2.70;;;6.00;99.90;;;;;;5033751;28;20534;-86
2022/11/05 01:23:48;;;;;;;4.17;2.77;;;6.00;99.90;;;;;;5033708;28;20100;-86
2022/11/05 01:26:14;;;;;;;4.93;2.77;;;6.00;99.90;;;;;;5033920;28;20204;-87
2022/11/05 01:28:39;;;;;;;4.30;2.57;;;6.00;99.90;;;;;;5033766;28;20057;-86
2022/11/05 01:31:05;;;;;;;5.17;2.57;;;6.00;99.90;;;;;;5050322;28;20104;-86
2022/11/05 01:33:30;;;;;;;5.47;3.20;;;6.00;99.90;;;;;;5053642;28;20064;-86
2022/11/05 01:35:56;;;;;;;5.00;2.80;;;6.10;99.90;;;;;;5053604;28;20109;-86
2022/11/05 01:38:22;;;;;;;6.73;3.87;;;6.10;99.90;;;;;;5053590;28;20047;-86
2022/11/05 01:40:47;;;;;;;7.30;3.80;;;6.10;99.90;;;;;;5053275;28;20157;-86
2022/11/05 01:43:18;;;;;;;5.00;3.00;;;6.10;99.90;;;;;;5052044;28;20025;-87
2022/11/05 01:45:49;;;;;;;5.73;3.23;;;6.10;99.90;;;;;;5053526;28;20028;-86
2022/11/05 01:48:22;;;;;;;5.70;3.20;;;6.00;99.90;;;;;;5052345;28;20025;-86
2022/11/05 01:51:06;;;;;;;6.40;3.37;;;6.00;99.90;;;;;;5053389;28;20029;-86
2022/11/05 01:53:42;;;;;;;4.10;3.00;;;6.00;99.90;;;;;;5053130;28;20398;-86
2022/11/05 01:56:19;;;;;;;4.50;3.03;;;6.00;99.90;;;;;;5053245;28;20029;-87
2022/11/05 01:58:47;;;;;;;5.40;2.70;;;6.00;99.90;;;;;;5053060;28;20035;-86
2022/11/05 02:01:14;;;;;;;6.10;3.00;;;6.00;99.90;;;;;;5052881;28;20110;-86
2022/11/05 02:03:41;;;;;;;5.73;3.17;;;6.00;99.90;;;;;;5052603;28;20431;-86
2022/11/05 02:06:08;;;;;;;4.30;2.80;;;6.00;99.90;;;;;;5052917;28;20354;-86
2022/11/05 02:08:59;;;;;;;5.77;3.03;;;5.90;99.90;;;;;;5052931;28;20021;-86
2022/11/05 02:11:24;;;;;;;11.37;3.50;;;5.90;99.90;;;;;;5053291;28;20029;-86
2022/11/05 02:13:50;;;;;;;4.97;3.23;;;5.80;99.90;;;;;;5052580;28;20024;-86
2022/11/05 02:16:44;;;;;;;5.10;2.60;;;5.80;99.90;;;;;;5052250;28;20474;-86
2022/11/05 02:19:43;;;;;;;5.70;3.00;;;5.80;99.90;;;;;;5053115;28;20032;-86
2022/11/05 02:22:28;;;;;;;4.77;3.00;;;5.70;99.90;;;;;;5051421;28;20016;-86
2022/11/05 02:25:00;;;;;;;6.53;3.40;;;5.70;99.90;;;;;;5052777;28;20385;-86
2022/11/05 02:27:41;;;;;;;5.00;3.23;;;5.70;99.90;;;;;;5052572;28;20023;-86
2022/11/05 02:30:25;;;;;;;7.13;4.13;;;5.60;99.90;;;;;;5043647;28;20033;-86
2022/11/05 02:32:59;;;;;;;6.73;3.90;;;5.60;99.90;;;;;;5032471;28;20029;-86
2022/11/05 02:35:58;;;;;;;6.63;3.87;;;5.60;99.90;;;;;;5032583;28;20032;-86
2022/11/05 02:38:50;;;;;;;6.27;3.90;;;5.50;99.90;;;;;;5032596;28;20119;-86
2022/11/05 02:41:43;;;;;;;5.80;3.70;;;5.50;99.90;;;;;;5032654;28;20025;-86
2022/11/05 02:44:09;;;;;;;8.43;3.90;;;5.50;99.90;;;;;;5032664;28;20026;-86
2022/11/05 02:47:11;;;;;;;7.83;4.30;;;5.50;99.90;;;;;;5032580;28;20025;-86
2022/11/05 02:49:46;;;;;;;5.73;3.97;;;5.50;99.90;;;;;;5032509;28;20098;-86
2022/11/05 02:52:22;;;;;;;;;;;5.50;99.90;;;;;;5033039;28;20425;-86
2022/11/05 02:54:58;;;;;;;5.60;3.92;;;5.40;99.90;;;;;;5032858;28;19955;-86
2022/11/05 02:57:23;;;;;;;7.57;4.30;;;5.40;99.90;;;;;;5032471;28;20454;-86
2022/11/05 03:00:00;;;;;;;9.37;4.97;;;5.40;99.90;;;;;;5032420;28;20112;-86
2022/11/05 03:02:26;;;;;;;9.67;5.73;;;5.40;99.90;;;;;;5047839;28;20032;-86
2022/11/05 03:04:51;;;;;;;9.10;4.90;;;5.40;99.90;;;;;;5032457;28;20021;-86
2022/11/05 03:07:34;;;;;;;7.63;4.80;;;5.40;99.90;;;;;;5032244;28;20013;-86
2022/11/05 03:10:22;;;;;;;8.00;4.80;;;5.40;99.90;;;;;;5032472;28;20379;-86
2022/11/05 03:13:07;;;;;;;5.23;3.97;;;5.40;99.90;;;;;;5031988;28;20026;-86
2022/11/05 03:15:52;;;;;;;6.37;4.03;;;5.40;99.90;;;;;;5032235;28;20109;-86
2022/11/05 03:18:50;;;;;;;5.32;4.13;;;5.40;99.90;;;;;;5031974;28;20391;-86
2022/11/05 03:21:26;;;;;;;6.43;4.23;;;5.40;99.90;;;;;;5031950;28;20073;-86
2022/11/05 03:24:12;;;;;;;6.97;3.90;;;5.50;99.90;;;;;;5031840;28;20053;-86
2022/11/05 03:26:50;;;;;;;9.05;4.57;;;5.50;99.90;;;;;;5032266;28;20021;-86
2022/11/05 03:29:22;;;;;;;9.27;6.20;;;5.50;99.90;;;;;;5034777;28;20487;-86
2022/11/05 03:31:51;;;;;;;12.17;7.20;;;5.60;99.90;;;;;;5035962;28;20434;-86
2022/11/05 03:34:20;;;;;;;12.03;7.60;;;5.60;99.90;;;;;;5035728;28;20025;-86
2022/11/05 03:36:51;;;;;;;11.73;7.43;;;5.60;99.90;;;;;;5035805;28;20075;-86
2022/11/05 03:39:21;;;;;;;13.07;7.63;;;5.70;99.90;;;;;;5035891;28;20408;-86
2022/11/05 03:41:50;;;;;;;13.73;8.03;;;5.70;99.90;;;;;;5035723;28;20087;-86
2022/11/05 03:44:22;;;;;;;8.27;5.80;;;5.80;99.90;;;;;;5035776;28;20490;-86
2022/11/05 03:46:51;;;;;;;8.00;5.20;;;5.80;99.90;;;;;;5035432;28;20045;-86
2022/11/05 03:49:23;;;;;;;11.20;5.90;;;5.80;99.90;;;;;;5035316;28;20117;-86
2022/11/05 03:52:01;;;;;;;12.00;6.03;;;5.80;99.90;;;;;;5035364;28;20030;-86
2022/11/05 03:54:27;;;;;;;11.43;6.30;;;5.90;99.90;;;;;;5035485;28;20335;-86
2022/11/05 03:57:16;;;;;;;8.23;5.37;;;5.90;99.90;;;;;;5035105;28;20029;-86
2022/11/05 03:59:45;;;;;;;7.50;5.20;;;5.90;99.90;;;;;;5035133;28;20026;-86
2022/11/05 04:02:17;;;;;;;6.80;4.60;;;6.00;99.90;;;;;;5035374;28;20030;-86
2022/11/05 04:04:43;;;;;;;10.47;5.23;;;6.10;99.90;;;;;;5035250;28;20077;-86
2022/11/05 04:15:21;;;;;;;8.17;5.97;;;6.20;99.90;;;;;;5035108;28;20032;-86
2022/11/05 04:17:50;;;;;;;8.93;6.80;;;6.20;99.90;;;;;;5034826;28;20045;-86
2022/11/05 04:25:46;;;;;;;9.43;5.80;;;6.30;99.90;;;;;;5035046;28;20120;-87
2022/11/05 04:28:12;;;;;;;8.30;6.03;;;6.30;99.90;;;;;;5034961;28;20050;-87
2022/11/05 04:30:39;;;;;;;8.13;5.20;;;6.40;99.90;;;;;;5034857;28;20033;-87
2022/11/05 04:33:10;;;;;;;8.83;5.40;;;6.40;99.90;;;;;;5034986;28;20379;-87
2022/11/05 04:35:41;;;;;;;8.20;5.10;;;6.40;99.90;;;;;;5035061;28;20084;-87
2022/11/05 04:38:09;;;;;;;7.03;5.03;;;6.40;99.90;;;;;;5050380;28;20478;-82
2022/11/05 04:40:35;;;;;;;8.50;5.47;;;6.50;99.90;;;;;;5033046;28;20076;-82
2022/11/05 04:43:00;;;;;;;9.73;5.70;;;6.50;99.90;;;;;;5033622;28;20038;-82
2022/11/05 04:45:29;;;;;;;6.80;5.03;;;6.50;99.90;;;;;;5033160;28;20048;-82
2022/11/05 04:47:55;;;;;;;7.27;5.13;;;6.50;99.90;;;;;;5033347;28;20029;-82
2022/11/05 04:50:20;;;;;;;7.83;5.67;;;6.50;99.90;;;;;;5033459;28;20493;-82
2022/11/05 04:52:46;;;;;;;8.37;6.27;;;6.60;99.90;;;;;;5033363;28;20531;-82
2022/11/05 04:55:12;;;;;;;9.47;6.47;;;6.60;99.90;;;;;;5033309;28;20501;-82
2022/11/05 04:57:38;;;;;;;12.37;6.97;;;6.60;99.90;;;;;;5033512;28;20034;-81
2022/11/05 05:00:05;;;;;;;13.43;8.37;;;6.60;99.90;;;;;;5033612;28;20041;-82
2022/11/05 05:02:31;;;;;;;10.73;8.30;;;6.60;99.90;;;;;;5033520;28;20489;-82
2022/11/05 05:04:57;;;;;;;11.47;8.10;;;6.60;99.90;;;;;;5033750;28;20029;-82
2022/11/05 05:07:22;;;;;;;12.00;8.60;;;6.60;99.90;;;;;;5033144;28;20021;-82
2022/11/05 05:09:48;;;;;;;24.03;12.80;;;6.60;99.90;;;;;;5033212;28;20516;-82
2022/11/05 05:12:14;;;;;;;21.20;13.27;;;6.60;99.90;;;;;;5033127;28;20389;-81
2022/11/05 05:14:39;;;;;;;19.57;11.37;;;6.60;99.90;;;;;;5033045;28;20029;-82
2022/11/05 05:17:05;;;;;;;16.90;9.77;;;6.60;99.90;;;;;;5032933;28;20098;-82
2022/11/05 05:21:37;;;;;;;13.30;7.87;;;6.70;99.90;;;;;;5033050;28;20044;-82
2022/11/05 05:22:16;;;;;;;11.30;7.40;;;6.60;99.90;;;;;;5033175;28;20052;-82
2022/11/05 05:24:41;;;;;;;13.47;7.23;;;6.60;99.90;;;;;;5032931;28;20462;-82
2022/11/05 05:27:08;;;;;;;8.80;6.77;;;6.60;99.90;;;;;;5031610;28;20033;-82
2022/11/05 05:29:33;;;;;;;10.30;7.07;;;6.70;99.90;;;;;;5034964;28;20122;-82
2022/11/05 05:31:59;;;;;;;12.97;7.47;;;6.70;99.90;;;;;;5047679;28;20104;-82
2022/11/05 05:34:24;;;;;;;9.43;7.23;;;6.70;99.90;;;;;;5052304;28;20033;-82
2022/11/05 05:36:50;;;;;;;9.43;7.37;;;6.60;99.90;;;;;;5052248;28;20033;-82
2022/11/05 05:39:18;;;;;;;12.23;7.73;;;6.70;99.90;;;;;;5051923;28;20029;-82
2022/11/05 05:41:43;;;;;;;9.80;7.30;;;6.70;99.90;;;;;;5051935;28;20029;-82
2022/11/05 05:44:09;;;;;;;9.10;7.23;;;6.70;99.90;;;;;;5051911;28;20025;-82
2022/11/05 05:46:34;;;;;;;9.63;7.23;;;6.70;99.90;;;;;;5052004;28;20025;-82
2022/11/05 05:49:00;;;;;;;11.13;7.30;;;6.70;99.90;;;;;;5051940;28;20029;-82
2022/11/05 05:51:25;;;;;;;12.30;8.00;;;6.70;99.90;;;;;;5051864;28;20051;-82
2022/11/05 05:53:53;;;;;;;10.43;8.23;;;6.70;99.90;;;;;;5050405;28;20072;-82
2022/11/05 05:56:19;;;;;;;9.10;7.50;;;6.70;99.90;;;;;;5051716;28;20082;-82
2022/11/05 05:58:46;;;;;;;11.20;8.33;;;6.70;99.90;;;;;;5051679;28;20384;-82
2022/11/05 06:01:14;;;;;;;13.10;8.50;;;6.70;99.90;;;;;;5051825;28;20028;-81
2022/11/05 06:03:39;;;;;;;9.03;8.00;;;6.70;99.90;;;;;;5051859;28;20441;-82
2022/11/05 06:06:11;;;;;;;10.50;7.73;;;6.70;99.90;;;;;;5051552;28;20048;-81
2022/11/05 06:08:38;;;;;;;9.07;7.60;;;6.70;99.90;;;;;;5051822;28;20096;-82
2022/11/05 06:11:04;;;;;;;12.90;7.77;;;6.70;99.90;;;;;;5050494;28;20359;-82
2022/11/05 06:13:31;;;;;;;10.80;8.23;;;6.80;99.90;;;;;;5051529;28;20137;-81
2022/11/05 06:16:05;;;;;;;10.80;8.13;;;6.80;99.90;;;;;;5051503;28;20035;-81
2022/11/05 06:18:31;;;;;;;10.43;7.57;;;6.70;99.90;;;;;;5050089;28;20036;-81
2022/11/05 06:21:06;;;;;;;12.57;8.03;;;6.80;99.90;;;;;;5051425;28;20148;-82
2022/11/05 06:23:33;;;;;;;11.17;8.57;;;6.80;99.90;;;;;;5051463;28;20041;-81
2022/11/05 06:26:05;;;;;;;15.23;8.70;;;6.80;99.90;;;;;;5051356;28;20028;-81
2022/11/05 06:28:32;;;;;;;12.87;8.53;;;6.80;99.90;;;;;;5051392;28;20036;-81
2022/11/05 06:30:58;;;;;;;11.80;8.53;;;6.80;99.90;;;;;;5042575;28;20104;-81
2022/11/05 06:33:24;;;;;;;9.73;8.73;;;6.80;99.90;;;;;;5031435;28;20033;-82
2022/11/05 06:35:51;;;;;;;11.60;8.87;;;6.80;99.90;;;;;;5031498;28;20037;-82
2022/11/05 06:38:16;;;;;;;10.37;8.33;;;6.90;99.90;;;;;;5031440;28;20432;-81
2022/11/05 06:40:42;;;;;;;12.07;8.70;;;6.90;99.90;;;;;;5031308;28;20033;-81
2022/11/05 06:43:07;;;;;;;11.30;8.50;;;6.90;99.90;;;;;;5033761;28;20029;-81
2022/11/05 06:45:33;;;;;;;11.17;9.20;;;6.90;99.90;;;;;;5050121;28;20025;-81
2022/11/05 06:47:58;;;;;;;15.30;9.77;;;6.90;99.90;;;;;;5049177;28;20500;-81
2022/11/05 06:50:26;;;;;;;8.63;7.73;;;7.00;99.90;;;;;;5049961;28;20076;-81
2022/11/05 06:53:02;;;;;;;11.90;8.40;;;7.00;99.90;;;;;;5045631;28;20087;-81
2022/11/05 06:55:30;;;;;;;9.97;8.03;;;7.00;99.90;;;;;;5050908;28;20056;-81
2022/11/05 06:57:56;;;;;;;10.80;8.17;;;7.00;99.90;;;;;;5050817;28;20040;-81
2022/11/05 07:00:23;;;;;;;10.30;8.17;;;7.00;99.90;;;;;;5050630;28;20378;-81
2022/11/05 07:02:49;;;;;;;12.33;9.10;;;7.00;99.90;;;;;;5050932;28;20025;-81
2022/11/05 07:05:15;;;;;;;12.77;8.40;;;7.10;99.90;;;;;;5054888;28;20032;-81
2022/11/05 07:07:42;;;;;;;11.30;8.57;;;7.10;99.90;;;;;;5054672;28;20028;-81
2022/11/05 07:10:13;;;;;;;11.97;8.10;;;7.10;99.90;;;;;;5054365;28;20489;-81
2022/11/05 07:12:38;;;;;;;10.20;8.57;;;7.20;99.90;;;;;;5054864;28;20109;-81
2022/11/05 07:15:05;;;;;;;9.63;7.40;;;7.20;99.90;;;;;;5054879;28;20108;-81
2022/11/05 07:17:30;;;;;;;11.07;7.77;;;7.20;99.90;;;;;;5054637;28;20474;-81
2022/11/05 07:19:56;;;;;;;10.60;8.23;;;7.30;99.90;;;;;;5054391;28;20088;-81
2022/11/05 07:22:22;;;;;;;10.23;7.77;;;7.30;99.90;;;;;;5054391;28;20025;-81
2022/11/05 07:24:48;;;;;;;14.10;8.60;;;7.40;99.90;;;;;;5054529;28;20040;-81
2022/11/05 07:27:15;;;;;;;11.17;8.63;;;7.40;99.90;;;;;;5054430;28;20021;-81
2022/11/05 07:29:40;;;;;;;12.07;8.50;;;7.40;99.90;;;;;;5052620;28;20028;-81
2022/11/05 07:32:06;;;;;;;10.93;8.43;;;7.50;99.90;;;;;;5038286;28;20457;-81
2022/11/05 07:34:31;;;;;;;12.30;8.20;;;7.50;99.90;;;;;;5054255;28;20086;-81
2022/11/05 07:36:57;;;;;;;10.87;7.90;;;7.50;99.90;;;;;;5052841;28;20103;-81
2022/11/05 07:39:23;;;;;;;10.63;7.97;;;7.60;99.90;;;;;;5051195;28;20035;-81
2022/11/05 07:41:51;;;;;;;11.27;8.20;;;7.60;99.90;;;;;;5054570;28;20029;-81
2022/11/05 07:44:17;;;;;;;9.70;8.50;;;7.60;99.90;;;;;;5054419;28;20025;-81
2022/11/05 07:46:42;;;;;;;10.37;8.73;;;7.70;99.90;;;;;;5053998;28;20023;-81
2022/11/05 07:49:08;;;;;;;11.67;8.67;;;7.70;99.90;;;;;;5054794;28;20033;-81
2022/11/05 07:51:33;;;;;;;10.43;8.23;;;7.70;99.90;;;;;;5054338;28;20060;-81
2022/11/05 07:53:59;;;;;;;10.93;8.00;;;7.80;99.90;;;;;;5055146;28;20028;-81
2022/11/05 07:56:25;;;;;;;10.20;9.00;;;7.80;99.90;;;;;;5054570;28;20025;-81
2022/11/05 07:58:50;;;;;;;10.70;8.23;;;7.90;99.90;;;;;;5054237;28;20036;-81
2022/11/05 08:01:16;;;;;;;12.70;8.80;;;7.90;99.90;;;;;;5054068;28;20021;-81
2022/11/05 08:03:41;;;;;;;11.07;7.93;;;8.00;99.90;;;;;;5054356;28;20021;-81
2022/11/05 08:06:07;;;;;;;9.87;8.27;;;8.10;99.90;;;;;;5054384;28;20043;-81
2022/11/05 08:08:32;;;;;;;11.00;8.53;;;8.10;99.90;;;;;;5053935;28;20373;-82
2022/11/05 08:11:06;;;;;;;13.17;7.80;;;8.10;99.90;;;;;;5053977;28;20021;-81
2022/11/05 08:13:32;;;;;;;10.30;8.47;;;8.20;99.90;;;;;;5054158;28;20462;-81
2022/11/05 08:15:58;;;;;;;9.83;7.87;;;8.30;99.90;;;;;;5052268;28;20386;-81
2022/11/05 08:18:30;;;;;;;10.67;8.30;;;8.40;99.90;;;;;;5053743;28;20106;-81
2022/11/05 08:21:00;;;;;;;11.53;8.03;;;8.40;99.90;;;;;;5053491;28;20187;-81
2022/11/05 08:23:29;;;;;;;10.77;8.40;;;8.40;99.90;;;;;;5052503;28;20017;-81
2022/11/05 08:25:56;;;;;;;10.17;8.50;;;8.50;99.90;;;;;;5053212;28;20022;-81
2022/11/05 08:28:22;;;;;;;12.60;8.10;;;8.50;99.90;;;;;;5053549;28;20095;-82
2022/11/05 08:30:49;;;;;;;9.77;8.10;;;8.50;99.90;;;;;;5045333;28;20029;-81
2022/11/05 08:33:15;;;;;;;10.77;8.53;;;8.50;99.90;;;;;;5050736;28;20036;-83
2022/11/05 08:35:41;;;;;;;8.83;7.90;;;8.60;99.90;;;;;;5053200;28;20032;-81
2022/11/05 08:38:10;;;;;;;11.07;8.10;;;8.60;99.90;;;;;;5053090;28;20102;-81
2022/11/05 08:40:36;;;;;;;10.57;8.60;;;8.60;99.90;;;;;;5052933;28;20041;-81
2022/11/05 08:43:03;;;;;;;12.17;8.73;;;8.50;99.90;;;;;;5052871;28;20040;-81
2022/11/05 08:45:29;;;;;;;11.57;9.43;;;8.50;99.90;;;;;;5053060;28;20025;-81
2022/11/05 08:48:03;;;;;;;9.53;8.53;;;8.50;99.90;;;;;;5052808;28;20029;-81
2022/11/05 08:50:30;;;;;;;10.30;9.13;;;8.40;99.90;;;;;;5053069;28;20425;-81
2022/11/05 08:52:56;;;;;;;12.10;9.60;;;8.40;99.90;;;;;;5053134;28;20086;-81
2022/11/05 08:55:22;;;;;;;10.20;8.80;;;8.40;99.90;;;;;;5053298;28;20029;-82
2022/11/05 08:57:47;;;;;;;10.63;9.13;;;8.50;99.90;;;;;;5053024;28;20082;-81
2022/11/05 09:00:14;;;;;;;12.53;9.07;;;8.50;99.90;;;;;;5052793;28;20060;-81
2022/11/05 09:02:40;;;;;;;10.53;8.90;;;8.60;99.90;;;;;;5052740;28;20017;-81
2022/11/05 09:05:06;;;;;;;10.97;8.80;;;8.70;99.90;;;;;;5052932;28;20410;-81
2022/11/05 09:07:32;;;;;;;10.87;8.27;;;8.80;99.90;;;;;;5052308;28;20112;-81
2022/11/05 09:09:57;;;;;;;9.23;7.97;;;8.90;99.90;;;;;;5052896;28;20120;-81
2022/11/05 09:12:23;;;;;;;8.07;7.03;;;9.00;99.90;;;;;;5052912;28;20025;-82
2022/11/05 09:14:48;;;;;;;8.73;7.03;;;9.00;99.90;;;;;;5052541;28;20021;-81
2022/11/05 09:17:19;;;;;;;8.50;7.00;;;9.10;99.90;;;;;;5052485;28;20148;-82
2022/11/05 09:19:45;;;;;;;8.47;6.53;;;9.10;99.90;;;;;;5052385;28;20028;-81
2022/11/05 09:22:11;;;;;;;8.37;7.30;;;9.20;99.90;;;;;;5052488;28;20027;-81
2022/11/05 09:24:41;;;;;;;7.97;7.00;;;9.30;99.90;;;;;;5051945;28;20021;-81
2022/11/05 09:27:14;;;;;;;7.00;6.07;;;9.30;99.90;;;;;;5051944;28;20084;-82
2022/11/05 09:29:40;;;;;;;6.67;5.90;;;9.20;99.90;;;;;;5047036;28;20027;-81
2022/11/05 09:32:06;;;;;;;7.43;6.13;;;9.20;99.90;;;;;;5039959;28;20141;-81
2022/11/05 09:34:33;;;;;;;6.87;6.17;;;9.20;99.90;;;;;;5052585;28;20021;-81
2022/11/05 09:36:58;;;;;;;8.20;7.03;;;9.20;99.90;;;;;;5052090;28;20108;-81
2022/11/05 09:39:24;;;;;;;7.37;6.57;;;9.20;99.90;;;;;;5051967;28;20378;-81
2022/11/05 09:42:03;;;;;;;7.27;6.57;;;9.20;99.90;;;;;;5051915;28;20032;-81
2022/11/05 09:44:34;;;;;;;6.77;6.07;;;9.30;99.90;;;;;;5052413;28;20089;-81
2022/11/05 09:47:04;;;;;;;6.83;6.13;;;9.30;99.90;;;;;;5052029;28;20096;-81
2022/11/05 09:49:41;;;;;;;9.50;6.33;;;9.30;99.90;;;;;;5052193;28;20516;-81
2022/11/05 09:52:17;;;;;;;7.73;6.20;;;9.30;99.90;;;;;;5052146;28;20058;-81
2022/11/05 09:54:42;;;;;;;8.03;6.20;;;9.30;99.90;;;;;;5052412;28;20346;-81
2022/11/05 09:57:16;;;;;;;7.33;5.80;;;9.30;99.90;;;;;;5051818;28;20037;-81
2022/11/05 09:59:45;;;;;;;7.00;5.73;;;9.50;99.90;;;;;;5051595;28;20029;-81
2022/11/05 10:02:32;;;;;;;6.97;6.27;;;9.50;99.90;;;;;;5051409;28;20135;-81
2022/11/05 10:05:08;;;;;;;8.00;6.10;;;9.60;99.90;;;;;;5051805;28;20063;-82
2022/11/05 10:07:43;;;;;;;6.87;5.93;;;9.60;99.90;;;;;;5050192;28;20029;-81
2022/11/05 10:10:33;;;;;;;6.60;6.00;;;9.60;99.90;;;;;;5051540;28;20054;-81
2022/11/05 10:13:05;;;;;;;6.00;5.40;;;9.60;99.90;;;;;;5050213;28;20078;-81
2022/11/05 10:15:36;;;;;;;6.17;5.23;;;9.60;99.90;;;;;;5051292;28;20107;-81
2022/11/05 10:18:31;;;;;;;6.17;5.57;;;9.50;99.90;;;;;;5049251;28;20397;-81
2022/11/05 10:20:57;;;;;;;7.22;5.97;;;9.50;99.90;;;;;;5050025;28;20060;-81
2022/11/05 10:23:26;;;;;;;5.30;4.73;;;9.50;99.90;;;;;;5057968;28;20264;-81
2022/11/05 10:26:11;;;;;;;4.23;3.83;;;9.50;99.90;;;;;;5058437;28;20060;-81
2022/11/05 10:28:37;;;;;;;5.35;4.50;;;9.50;99.90;;;;;;5053897;28;20031;-81
2022/11/05 10:31:08;;;;;;;6.50;4.80;;;9.40;99.90;;;;;;5045279;28;20116;-81
2022/11/05 10:33:46;;;;;;;17.17;10.73;;;9.40;99.90;;;;;;5031899;28;20033;-81
2022/11/05 10:36:19;;;;;;;6.17;5.20;;;9.40;99.90;;;;;;5030826;28;20041;-81
2022/11/05 10:38:44;;;;;;;5.30;4.77;;;9.50;99.90;;;;;;5030473;28;20056;-81
2022/11/05 10:41:33;;;;;;;4.00;3.60;;;9.60;99.90;;;;;;5029849;28;20133;-81
2022/11/05 10:44:20;;;;;;;3.93;3.10;;;9.90;99.90;;;;;;5030471;28;20029;-81
2022/11/05 10:47:24;;;;;;;3.53;3.22;;;10.20;99.90;;;;;;5031277;28;20029;-82
2022/11/05 10:49:55;;;;;;;3.65;3.08;;;10.30;99.90;;;;;;5031171;28;20363;-82
2022/11/05 10:52:37;;;;;;;2.83;2.53;;;10.30;99.90;;;;;;5030905;28;20495;-81
2022/11/05 10:55:19;;;;;;;3.50;2.50;;;10.30;99.90;;;;;;5029779;28;20064;-81
2022/11/05 10:57:47;;;;;;;3.90;2.50;;;10.20;99.90;;;;;;5030875;28;20083;-81
2022/11/05 11:00:16;;;;;;;2.83;2.23;;;10.20;99.90;;;;;;5029483;28;20394;-81
2022/11/05 11:03:02;;;;;;;5.75;2.28;;;10.20;99.90;;;;;;5030592;28;20017;-81
2022/11/05 11:05:36;;;;;;;4.28;2.13;;;10.20;99.90;;;;;;5030183;28;20542;-81
2022/11/05 11:08:02;;;;;;;2.60;1.95;;;10.20;99.90;;;;;;5030681;28;20026;-81
2022/11/05 11:10:31;;;;;;;2.65;2.03;;;10.10;99.90;;;;;;5030455;28;20515;-81
2022/11/05 11:12:59;;;;;;;2.50;2.20;;;10.10;99.90;;;;;;5030813;28;20028;-82
2022/11/05 11:15:31;;;;;;;2.57;1.80;;;10.10;99.90;;;;;;5030533;28;20035;-82
2022/11/05 11:17:57;;;;;;;2.40;1.90;;;10.00;99.90;;;;;;5030397;28;20057;-81
2022/11/05 11:20:32;;;;;;;2.93;2.17;;;9.90;99.90;;;;;;5030749;28;20394;-81
2022/11/05 11:22:57;;;;;;;;;;;9.80;99.90;;;;;;5031057;28;20088;-81
2022/11/05 11:25:25;;;;;;;3.97;2.40;;;9.70;99.90;;;;;;5030771;28;19935;-81
2022/11/05 11:27:51;;;;;;;2.80;2.28;;;9.70;99.90;;;;;;5029105;28;20067;-81
2022/11/05 11:30:19;;;;;;;3.58;2.78;;;9.60;99.90;;;;;;5037776;28;20041;-81
2022/11/05 11:32:46;;;;;;;4.30;3.43;;;9.60;99.90;;;;;;5043404;28;20618;-81
2022/11/05 11:35:30;;;;;;;3.77;3.30;;;9.50;99.90;;;;;;5050628;28;20033;-81
2022/11/05 11:37:59;;;;;;;5.47;3.53;;;9.40;99.90;;;;;;5050362;28;20032;-81
2022/11/05 11:40:36;;;;;;;5.50;3.57;;;9.30;99.90;;;;;;5050661;28;20036;-81
2022/11/05 11:43:12;;;;;;;4.10;3.70;;;9.20;99.90;;;;;;5050536;28;20100;-82
2022/11/05 11:45:50;;;;;;;4.23;3.13;;;9.20;99.90;;;;;;5050775;28;20017;-82
2022/11/05 11:48:21;;;;;;;5.23;3.17;;;9.00;99.90;;;;;;5050797;28;20022;-81
2022/11/05 11:50:48;;;;;;;4.53;3.50;;;9.00;99.90;;;;;;5054601;28;20025;-81
2022/11/05 11:53:16;;;;;;;4.53;3.13;;;8.90;99.90;;;;;;5054801;28;20033;-84
2022/11/05 11:55:54;;;;;;;4.07;3.40;;;8.80;99.90;;;;;;5053423;28;20466;-81
2022/11/05 11:58:22;;;;;;;5.30;3.27;;;8.80;99.90;;;;;;5054487;28;20029;-81
2022/11/05 12:01:22;;;;;;;5.27;3.90;;;8.80;99.90;;;;;;5054457;28;20067;-82
2022/11/05 12:03:50;;;;;;;5.20;3.60;;;8.70;99.90;;;;;;5054553;28;20021;-82
2022/11/05 12:06:51;;;;;;;5.30;3.80;;;8.70;99.90;;;;;;5054292;28;20500;-82
2022/11/05 12:09:17;;;;;;;4.97;3.40;;;8.70;99.90;;;;;;5054113;28;20053;-82
2022/11/05 12:11:59;;;;;;;4.00;3.60;;;8.60;99.90;;;;;;5054700;28;20155;-82
2022/11/05 12:14:42;;;;;;;4.80;3.40;;;8.70;99.90;;;;;;5054182;28;20025;-82
2022/11/05 12:17:27;;;;;;;3.47;3.17;;;8.70;99.90;;;;;;5053954;28;20049;-82
2022/11/05 12:20:18;;;;;;;3.77;3.23;;;8.80;99.90;;;;;;5053814;28;20402;-82
2022/11/05 12:22:52;;;;;;;3.63;2.73;;;8.90;99.90;;;;;;5053797;28;20351;-82
2022/11/05 12:25:21;;;;;;;4.10;2.90;;;9.00;99.90;;;;;;5054225;28;20374;-81
2022/11/05 12:28:11;;;;;;;3.63;3.03;;;9.10;99.90;;;;;;5053585;28;20413;-82
2022/11/05 12:31:01;;;;;;;3.43;2.57;;;9.30;99.90;;;;;;5045193;28;20514;-82
2022/11/05 12:33:50;;;;;;;3.43;2.70;;;9.30;99.90;;;;;;5038865;28;20017;-82
2022/11/05 12:36:30;;;;;;;3.07;2.37;;;9.40;99.90;;;;;;5053123;28;20409;-82
2022/11/05 12:38:56;;;;;;;2.77;2.07;;;9.40;99.90;;;;;;5046347;28;20108;-82
2022/11/05 12:41:21;;;;;;;2.47;2.00;;;9.50;99.90;;;;;;5052938;28;20445;-82
2022/11/05 12:44:09;;;;;;;3.17;1.90;;;9.50;99.90;;;;;;5053394;28;20082;-82
2022/11/05 12:46:54;;;;;;;2.47;1.93;;;9.50;99.90;;;;;;5053186;28;20032;-83
2022/11/05 12:49:22;;;;;;;;;;;9.30;99.90;;;;;;5053925;28;20033;-83
2022/11/05 12:52:17;;;;;;;3.90;2.43;;;9.20;99.90;;;;;;5039699;28;19931;-83
2022/11/05 12:55:10;;;;;;;5.50;2.57;;;9.10;99.90;;;;;;5052963;28;20105;-82
2022/11/05 12:57:40;;;;;;;4.57;2.47;;;9.00;99.90;;;;;;5052977;28;20167;-83
2022/11/05 13:00:25;;;;;;;3.83;2.30;;;9.00;99.90;;;;;;5037427;28;20478;-82
2022/11/05 13:02:50;;;;;;;4.20;2.63;;;8.90;99.90;;;;;;5051906;28;20036;-82
2022/11/05 13:05:39;;;;;;;3.90;2.83;;;8.90;99.90;;;;;;5052559;28;20021;-82
2022/11/05 13:08:17;;;;;;;3.03;2.57;;;8.90;99.90;;;;;;5038465;28;20032;-83
2022/11/05 13:10:50;;;;;;;3.60;2.67;;;8.90;99.90;;;;;;5052372;28;20068;-83
2022/11/05 13:13:38;;;;;;;3.37;2.90;;;8.90;99.90;;;;;;5042898;28;20036;-83
2022/11/05 13:16:15;;;;;;;5.27;3.50;;;8.90;99.90;;;;;;5052357;28;20033;-83
2022/11/05 13:19:30;;;;;;;3.83;2.90;;;9.00;99.90;;;;;;5048510;28;20115;-83
2022/11/05 13:22:18;;;;;;;3.57;2.30;;;9.00;99.90;;;;;;5015662;28;20128;-83
2022/11/05 13:24:56;;;;;;;4.40;1.90;;;9.10;99.90;;;;;;5045806;28;20041;-83
2022/11/05 13:27:49;;;;;;;2.30;1.70;;;9.10;99.90;;;;;;5036710;28;20038;-82
2022/11/05 13:30:21;;;;;;;3.90;2.30;;;9.20;99.90;;;;;;5043678;28;20033;-88
2022/11/05 13:33:15;;;;;;;5.17;2.50;;;9.10;99.90;;;;;;5037381;28;20076;-88
2022/11/05 13:35:42;;;;;;;4.47;2.60;;;9.10;99.90;;;;;;5041902;28;20042;-88
2022/11/05 13:41:37;;;;;;;3.60;2.40;;;9.10;99.90;;;;;;5032235;28;20079;-87
2022/11/05 13:44:29;;;;;;;3.50;2.10;;;9.10;99.90;;;;;;5031152;28;20040;-88
2022/11/05 13:47:35;;;;;;;2.70;2.10;;;9.00;99.90;;;;;;5038258;28;20025;-88
2022/11/05 13:50:08;;;;;;;;;;;9.10;99.90;;;;;;5049751;28;20048;-87
2022/11/05 13:53:28;;;;;;;2.33;1.90;;;9.00;99.90;;;;;;5048488;28;19920;-88
2022/11/05 13:56:03;;;;;;;2.33;1.80;;;9.00;99.90;;;;;;5037225;28;20124;-87
2022/11/05 13:58:55;;;;;;;2.00;1.50;;;9.00;99.90;;;;;;5046747;28;20021;-88
2022/11/05 14:01:40;;;;;;;2.40;1.80;;;9.00;99.90;;;;;;5035124;28;20556;-88
2022/11/05 14:04:12;;;;;;;2.88;1.95;;;9.00;99.90;;;;;;5051192;28;20445;-88